sensor_id;sensor_type;location;lat;lon;timestamp;temperature;humidity
20750;DHT22;10535;50.664;4.564;2022-12-05T00:01:30;2.40;99.90
20750;DHT22;10535;50.664;4.564;2022-12-05T00:03:58;2.40;99.90
20750;DHT22;10535;50.664;4.564;2022-12-05T00:06:26;2.60;99.90
20750;DHT22;10535;50.664;4.564;2022-12-05T00:08:52;2.50;99.90
20750;DHT22;10535;50.664;4.564;2022-12-05T00:11:20;2.30;99.90
20750;DHT22;10535;50.664;4.564;2022-12-05T00:13:47;2.40;99.90
20750;DHT22;10535;50.664;4.564;2022-12-05T00:16:15;2.50;99.90
20750;DHT22;10535;50.664;4.564;2022-12-05T00:18:42;2.50;99.90
20750;DHT22;10535;50.664;4.564;2022-12-05T00:21:13;2.40;99.90
20750;DHT22;10535;50.664;4.564;2022-12-05T00:23:39;2.30;99.90
20750;DHT22;10535;50.664;4.564;2022-12-05T00:26:05;2.30;99.90
20750;DHT22;10535;50.664;4.564;2022-12-05T00:28:32;2.50;99.90
20750;DHT22;10535;50.664;4.564;2022-12-05T00:31:06;2.30;99.90
20750;DHT22;10535;50.664;4.564;2022-12-05T00:33:32;2.30;99.90
20750;DHT22;10535;50.664;4.564;2022-12-05T00:36:09;2.30;99.90
20750;DHT22;10535;50.664;4.564;2022-12-05T00:38:35;2.30;99.90
20750;DHT22;10535;50.664;4.564;2022-12-05T00:41:06;2.30;99.90
20750;DHT22;10535;50.664;4.564;2022-12-05T00:43:32;2.30;99.90
20750;DHT22;10535;50.664;4.564;2022-12-05T00:46:05;2.30;99.90
20750;DHT22;10535;50.664;4.564;2022-12-05T00:48:32;2.30;99.90
20750;DHT22;10535;50.664;4.564;2022-12-05T00:51:06;2.30;99.90
20750;DHT22;10535;50.664;4.564;2022-12-05T00:53:33;2.30;99.90
20750;DHT22;10535;50.664;4.564;2022-12-05T00:56:03;2.40;99.90
20750;DHT22;10535;50.664;4.564;2022-12-05T00:58:30;2.40;99.90
20750;DHT22;10535;50.664;4.564;2022-12-05T01:00:56;2.40;99.90
20750;DHT22;10535;50.664;4.564;2022-12-05T01:03:21;2.40;99.90
20750;DHT22;10535;50.664;4.564;2022-12-05T01:05:47;2.50;99.90
20750;DHT22;10535;50.664;4.564;2022-12-05T01:08:12;2.40;99.90
20750;DHT22;10535;50.664;4.564;2022-12-05T01:10:38;2.20;99.90
20750;DHT22;10535;50.664;4.564;2022-12-05T01:13:03;2.30;99.90
20750;DHT22;10535;50.664;4.564;2022-12-05T01:15:29;2.40;99.90
20750;DHT22;10535;50.664;4.564;2022-12-05T01:17:55;2.30;99.90
20750;DHT22;10535;50.664;4.564;2022-12-05T01:20:20;2.40;99.90
20750;DHT22;10535;50.664;4.564;2022-12-05T01:22:46;2.40;99.90
20750;DHT22;10535;50.664;4.564;2022-12-05T01:25:11;2.30;99.90
20750;DHT22;10535;50.664;4.564;2022-12-05T01:27:37;2.20;99.90
20750;DHT22;10535;50.664;4.564;2022-12-05T01:30:03;2.30;99.90
20750;DHT22;10535;50.664;4.564;2022-12-05T01:32:29;2.40;99.90
20750;DHT22;10535;50.664;4.564;2022-12-05T01:34:54;2.20;99.90
20750;DHT22;10535;50.664;4.564;2022-12-05T01:37:20;2.30;99.90
20750;DHT22;10535;50.664;4.564;2022-12-05T01:39:48;2.30;99.90
20750;DHT22;10535;50.664;4.564;2022-12-05T01:42:13;2.20;99.90
20750;DHT22;10535;50.664;4.564;2022-12-05T01:47:08;2.20;99.90
20750;DHT22;10535;50.664;4.564;2022-12-05T01:49:39;2.10;99.90
20750;DHT22;10535;50.664;4.564;2022-12-05T01:52:13;2.10;99.90
20750;DHT22;10535;50.664;4.564;2022-12-05T01:54:42;2.20;99.90
20750;DHT22;10535;50.664;4.564;2022-12-05T01:57:10;2.20;99.90
20750;DHT22;10535;50.664;4.564;2022-12-05T01:59:44;2.40;99.90
20750;DHT22;10535;50.664;4.564;2022-12-05T02:02:12;2.50;99.90
20750;DHT22;10535;50.664;4.564;2022-12-05T02:04:43;2.70;99.90
20750;DHT22;10535;50.664;4.564;2022-12-05T02:07:10;2.50;99.90
20750;DHT22;10535;50.664;4.564;2022-12-05T02:09:35;2.40;99.90
20750;DHT22;10535;50.664;4.564;2022-12-05T02:12:02;2.30;99.90
20750;DHT22;10535;50.664;4.564;2022-12-05T02:24:54;2.30;99.90
20750;DHT22;10535;50.664;4.564;2022-12-05T02:36:12;2.10;99.90
20750;DHT22;10535;50.664;4.564;2022-12-05T02:38:46;2.20;99.90
20750;DHT22;10535;50.664;4.564;2022-12-05T02:41:32;2.20;99.90
20750;DHT22;10535;50.664;4.564;2022-12-05T02:44:03;2.20;99.90
20750;DHT22;10535;50.664;4.564;2022-12-05T02:46:31;2.00;99.90
20750;DHT22;10535;50.664;4.564;2022-12-05T02:49:03;2.00;99.90
20750;DHT22;10535;50.664;4.564;2022-12-05T02:51:34;1.90;99.90
20750;DHT22;10535;50.664;4.564;2022-12-05T02:54:03;2.30;99.90
20750;DHT22;10535;50.664;4.564;2022-12-05T02:56:32;2.00;99.90
20750;DHT22;10535;50.664;4.564;2022-12-05T02:58:59;1.90;99.90
20750;DHT22;10535;50.664;4.564;2022-12-05T03:01:29;2.00;99.90
20750;DHT22;10535;50.664;4.564;2022-12-05T03:03:57;2.10;99.90
